createdAt,value
2023-02-22T00:01:19.240Z,45.83
2023-02-22T00:03:52.112Z,50.75
2023-02-22T00:06:25.222Z,48.78
2023-02-22T00:08:53.249Z,46.20
2023-02-22T00:11:20.786Z,48.05
2023-02-22T00:13:50.568Z,52.47
2023-02-22T00:16:21.667Z,49.22
2023-02-22T00:18:50.339Z,50.15
2023-02-22T00:21:18.957Z,50.53
2023-02-22T00:23:48.222Z,50.42
2023-02-22T00:26:23.457Z,49.83
2023-02-22T00:28:54.305Z,51.78
2023-02-22T00:31:22.386Z,49.58
2023-02-22T00:33:50.261Z,50.17
2023-02-22T00:36:18.426Z,46.55
2023-02-22T00:38:45.919Z,49.13
2023-02-22T00:41:13.507Z,51.75
2023-02-22T00:43:41.481Z,48.95
2023-02-22T00:46:09.133Z,50.25
2023-02-22T00:48:36.624Z,48.60
2023-02-22T00:51:04.485Z,47.45
2023-02-22T00:53:32.021Z,50.38
2023-02-22T00:55:59.577Z,48.83
2023-02-22T00:58:28.821Z,45.85
2023-02-22T01:00:58.460Z,48.40
2023-02-22T01:03:26.020Z,46.88
2023-02-22T01:05:53.813Z,50.50
2023-02-22T01:08:21.389Z,49.80
2023-02-22T01:10:49.539Z,48.30
2023-02-22T01:13:19.171Z,51.13
2023-02-22T01:15:47.049Z,49.67
2023-02-22T01:18:17.397Z,51.03
2023-02-22T01:20:48.071Z,49.22
2023-02-22T01:23:17.358Z,56.17
2023-02-22T01:25:45.217Z,52.90
2023-02-22T01:28:15.291Z,54.08
2023-02-22T01:30:42.871Z,53.55
2023-02-22T01:33:12.798Z,51.17
2023-02-22T01:35:42.501Z,54.92
2023-02-22T01:38:10.733Z,55.55
2023-02-22T01:40:43.689Z,53.30
2023-02-22T01:43:32.650Z,52.20
2023-02-22T01:46:26.068Z,51.78
2023-02-22T01:49:00.143Z,52.67
2023-02-22T01:51:37.796Z,53.13
2023-02-22T01:54:13.831Z,55.40
2023-02-22T01:57:02.247Z,54.22
2023-02-22T01:59:36.526Z,55.72
2023-02-22T02:02:06.707Z,52.67
2023-02-22T02:04:36.397Z,52.10
2023-02-22T02:07:08.842Z,57.42
2023-02-22T02:09:54.390Z,52.92
2023-02-22T02:12:24.090Z,56.42
2023-02-22T02:14:52.535Z,56.90
2023-02-22T02:17:23.680Z,53.08
2023-02-22T02:20:02.145Z,59.75
2023-02-22T02:23:08.477Z,55.08
2023-02-22T02:25:58.002Z,58.65
2023-02-22T02:29:24.797Z,56.35
2023-02-22T02:32:31.929Z,65.20
2023-02-22T02:35:45.397Z,63.22
2023-02-22T02:38:17.412Z,58.63
2023-02-22T02:41:29.870Z,61.33
2023-02-22T02:44:00.137Z,68.18
2023-02-22T02:46:52.690Z,65.38
2023-02-22T02:49:34.494Z,64.35
2023-02-22T02:52:04.846Z,65.30
2023-02-22T02:54:34.272Z,60.20
2023-02-22T02:57:03.354Z,60.65
2023-02-22T02:59:34.727Z,62.90
2023-02-22T03:02:49.282Z,64.60
2023-02-22T03:06:12.846Z,65.53
2023-02-22T03:09:04.986Z,66.10
2023-02-22T03:12:02.225Z,67.68
2023-02-22T03:14:46.985Z,73.13
2023-02-22T03:17:36.792Z,75.57
2023-02-22T03:20:13.623Z,74.32
2023-02-22T03:22:55.616Z,74.32
2023-02-22T03:25:41.582Z,78.63
2023-02-22T03:28:15.593Z,102.18
2023-02-22T03:31:22.822Z,99.72
2023-02-22T03:34:16.938Z,144.98
2023-02-22T03:36:59.721Z,106.28
2023-02-22T03:39:31.324Z,91.38
2023-02-22T03:42:17.179Z,103.07
2023-02-22T03:44:49.898Z,209.77
2023-02-22T03:47:29.810Z,142.18
2023-02-22T03:50:09.533Z,279.60
2023-02-22T03:52:38.223Z,246.95
2023-02-22T03:55:13.590Z,222.18
2023-02-22T03:57:49.790Z,180.82
2023-02-22T04:00:28.125Z,247.55
2023-02-22T04:02:56.455Z,199.43
2023-02-22T04:05:25.082Z,246.45
2023-02-22T04:07:55.056Z,318.55
2023-02-22T04:10:24.327Z,132.43
2023-02-22T04:12:52.264Z,268.92
2023-02-22T04:15:23.769Z,221.73
2023-02-22T04:17:55.644Z,188.75
2023-02-22T04:20:25.625Z,232.93
2023-02-22T04:22:59.434Z,285.42
2023-02-22T04:25:28.003Z,371.52
2023-02-22T04:27:57.820Z,227.48
2023-02-22T04:30:37.671Z,227.18
2023-02-22T04:33:08.800Z,163.55
2023-02-22T04:35:37.805Z,283.98
2023-02-22T04:38:09.251Z,203.55
2023-02-22T04:40:40.100Z,245.32
2023-02-22T04:43:08.693Z,218.52
2023-02-22T04:45:36.396Z,190.68
2023-02-22T04:48:05.912Z,223.48
2023-02-22T04:50:34.712Z,150.32
2023-02-22T04:53:04.091Z,134.00
2023-02-22T04:55:31.649Z,253.63
2023-02-22T04:57:59.683Z,179.77
2023-02-22T05:00:27.420Z,168.13
2023-02-22T05:03:00.128Z,233.73
2023-02-22T05:05:28.103Z,186.10
2023-02-22T05:07:55.828Z,184.02
2023-02-22T05:10:24.798Z,224.65
2023-02-22T05:12:52.448Z,253.80
2023-02-22T05:15:22.104Z,194.02
2023-02-22T05:17:50.065Z,219.95
2023-02-22T05:20:28.722Z,235.20
2023-02-22T05:22:57.669Z,215.30
2023-02-22T05:25:26.448Z,100.90
2023-02-22T05:27:57.422Z,196.18
2023-02-22T05:30:30.807Z,296.27
2023-02-22T05:32:59.452Z,179.88
2023-02-22T05:35:29.101Z,198.82
2023-02-22T05:37:57.517Z,200.77
2023-02-22T05:40:27.121Z,104.57
2023-02-22T05:42:56.865Z,147.77
2023-02-22T05:45:27.448Z,167.00
2023-02-22T05:47:56.056Z,119.55
2023-02-22T05:50:24.754Z,124.97
2023-02-22T05:52:54.090Z,145.30
2023-02-22T05:55:24.325Z,100.47
2023-02-22T05:57:53.075Z,132.98
2023-02-22T06:00:30.625Z,110.22
2023-02-22T06:03:02.196Z,150.40
2023-02-22T06:05:31.104Z,127.57
2023-02-22T06:07:59.824Z,149.30
2023-02-22T06:10:28.243Z,132.70
2023-02-22T06:12:57.479Z,99.60
2023-02-22T06:15:27.726Z,85.10
2023-02-22T06:17:57.861Z,90.28
2023-02-22T06:20:29.932Z,89.65
2023-02-22T06:22:59.215Z,94.97
2023-02-22T06:25:31.399Z,124.70
2023-02-22T06:28:00.928Z,90.03
2023-02-22T06:30:29.839Z,118.63
2023-02-22T06:32:57.747Z,86.53
2023-02-22T06:35:25.428Z,98.55
2023-02-22T06:37:53.091Z,85.22
2023-02-22T06:40:21.051Z,102.72
2023-02-22T06:42:49.597Z,97.78
2023-02-22T06:45:18.366Z,98.97
2023-02-22T06:47:47.785Z,99.05
2023-02-22T06:50:35.850Z,88.82
2023-02-22T06:53:04.672Z,96.95
2023-02-22T06:55:35.149Z,90.93
2023-02-22T06:58:04.960Z,92.38
2023-02-22T07:00:33.609Z,94.53
2023-02-22T07:03:04.318Z,101.97
2023-02-22T07:05:31.858Z,109.50
2023-02-22T07:08:08.156Z,109.00
2023-02-22T07:10:38.344Z,114.80
2023-02-22T07:13:08.649Z,136.32
2023-02-22T07:15:36.547Z,121.85
2023-02-22T07:18:04.697Z,101.03
2023-02-22T07:20:33.201Z,96.25
2023-02-22T07:23:02.023Z,103.85
2023-02-22T07:25:29.465Z,109.68
2023-02-22T07:27:57.688Z,108.18
2023-02-22T07:30:34.531Z,107.78
2023-02-22T07:33:07.402Z,108.07
2023-02-22T07:35:48.385Z,112.03
2023-02-22T07:38:19.058Z,94.13
2023-02-22T07:40:47.601Z,96.37
2023-02-22T07:43:24.618Z,89.32
2023-02-22T07:45:59.006Z,89.70
2023-02-22T07:48:29.978Z,91.60
2023-02-22T07:50:58.873Z,94.63
2023-02-22T07:53:30.876Z,84.63
2023-02-22T07:56:01.436Z,79.13
2023-02-22T07:58:31.561Z,84.53
2023-02-22T08:01:02.154Z,89.18
2023-02-22T08:03:36.426Z,87.30
2023-02-22T08:06:08.120Z,79.20
2023-02-22T08:08:37.064Z,83.78
2023-02-22T08:11:05.701Z,74.68
2023-02-22T08:13:33.507Z,72.78
2023-02-22T08:16:01.054Z,76.68
2023-02-22T08:18:28.584Z,76.35
2023-02-22T08:20:57.552Z,72.10
2023-02-22T08:23:27.058Z,74.43
2023-02-22T08:25:55.780Z,66.75
2023-02-22T08:28:25.027Z,76.10
2023-02-22T08:30:55.894Z,68.95
2023-02-22T08:33:24.764Z,69.37
2023-02-22T08:35:52.575Z,66.72
2023-02-22T08:38:28.395Z,61.75
2023-02-22T08:40:56.729Z,65.13
2023-02-22T08:43:24.479Z,63.78
2023-02-22T08:45:53.315Z,65.70
2023-02-22T08:48:21.684Z,72.05
2023-02-22T08:50:49.929Z,71.30
2023-02-22T08:53:18.050Z,69.90
2023-02-22T08:55:45.848Z,67.05
2023-02-22T08:58:14.021Z,72.60
2023-02-22T09:00:44.642Z,63.90
2023-02-22T09:03:15.046Z,65.55
2023-02-22T09:05:44.502Z,62.15
2023-02-22T09:08:12.608Z,59.65
2023-02-22T09:10:40.765Z,65.18
2023-02-22T09:13:08.748Z,58.83
2023-02-22T09:15:36.409Z,58.45
2023-02-22T09:18:08.538Z,65.35
2023-02-22T09:20:36.756Z,62.83
2023-02-22T09:23:06.782Z,60.78
2023-02-22T09:25:34.333Z,62.55
2023-02-22T09:28:02.770Z,56.95
2023-02-22T09:30:36.688Z,61.72
2023-02-22T09:33:14.483Z,61.80
2023-02-22T09:35:47.792Z,56.22
2023-02-22T09:38:26.141Z,53.28
2023-02-22T09:41:34.580Z,53.47
2023-02-22T09:44:16.141Z,51.47
2023-02-22T09:46:45.922Z,48.08
2023-02-22T09:50:15.913Z,45.25
2023-02-22T09:53:05.730Z,47.10
2023-02-22T09:55:48.039Z,49.35
2023-02-22T09:58:33.484Z,47.50
2023-02-22T10:01:28.119Z,47.60
2023-02-22T10:04:24.763Z,48.90
2023-02-22T10:07:39.035Z,46.78
2023-02-22T10:10:07.640Z,45.78
2023-02-22T10:12:56.454Z,43.88
2023-02-22T10:15:55.176Z,42.97
2023-02-22T10:19:11.324Z,46.20
2023-02-22T10:21:42.583Z,47.20
2023-02-22T10:24:23.652Z,44.45
2023-02-22T10:26:54.232Z,43.53
2023-02-22T10:29:54.799Z,43.53
2023-02-22T10:32:36.413Z,43.13
2023-02-22T10:35:18.312Z,39.70
2023-02-22T10:40:23.831Z,38.78
2023-02-22T10:42:51.426Z,41.05
2023-02-22T10:45:32.714Z,37.00
2023-02-22T10:48:09.577Z,34.45
2023-02-22T10:50:42.300Z,37.08
2023-02-22T10:53:12.518Z,35.30
2023-02-22T10:56:15.400Z,37.17
2023-02-22T10:58:52.437Z,33.55
2023-02-22T11:01:38.290Z,36.75
2023-02-22T11:04:24.280Z,35.15
2023-02-22T11:07:01.583Z,33.97
2023-02-22T11:09:29.187Z,35.65
2023-02-22T11:12:21.217Z,31.42
2023-02-22T11:17:28.383Z,32.15
2023-02-22T11:19:57.256Z,31.77
2023-02-22T11:22:41.103Z,29.38
2023-02-22T11:25:18.656Z,29.55
2023-02-22T11:27:47.102Z,34.80
2023-02-22T11:30:32.492Z,26.08
2023-02-22T11:33:24.636Z,25.85
2023-02-22T11:35:57.297Z,26.58
2023-02-22T11:38:33.964Z,24.58
2023-02-22T11:41:08.252Z,20.30
2023-02-22T11:43:38.232Z,20.77
2023-02-22T11:46:17.123Z,19.10
2023-02-22T11:49:04.692Z,19.27
2023-02-22T11:51:49.395Z,19.25
2023-02-22T11:54:57.350Z,18.92
2023-02-22T11:57:41.175Z,19.65
2023-02-22T12:00:36.733Z,18.70
2023-02-22T12:03:37.771Z,18.63
2023-02-22T12:06:33.179Z,19.80
2023-02-22T12:09:19.179Z,21.13
2023-02-22T12:12:07.184Z,21.13
2023-02-22T12:14:48.824Z,27.75
2023-02-22T12:20:24.765Z,19.50
2023-02-22T12:23:40.694Z,21.90
2023-02-22T12:26:20.114Z,19.02
2023-02-22T12:29:06.337Z,22.67
2023-02-22T12:31:45.851Z,20.38
2023-02-22T12:34:20.217Z,19.58
2023-02-22T12:36:55.180Z,23.00
2023-02-22T12:39:56.754Z,20.38
2023-02-22T12:42:47.247Z,18.98
2023-02-22T12:45:28.316Z,19.15
2023-02-22T12:48:17.339Z,21.83
2023-02-22T12:50:48.953Z,20.10
2023-02-22T12:53:30.820Z,19.02
2023-02-22T12:56:23.899Z,21.45
2023-02-22T12:59:31.580Z,23.70
2023-02-22T13:02:26.680Z,21.05
2023-02-22T13:04:55.089Z,19.85
2023-02-22T13:07:49.971Z,23.02
2023-02-22T13:10:39.472Z,20.23
2023-02-22T13:13:53.676Z,22.05
2023-02-22T13:17:09.229Z,21.02
2023-02-22T13:20:08.728Z,21.58
2023-02-22T13:22:47.839Z,22.30
2023-02-22T13:25:45.698Z,21.58
2023-02-22T13:28:13.247Z,22.67
2023-02-22T13:31:03.583Z,25.30
2023-02-22T13:34:30.087Z,22.20
2023-02-22T13:37:30.509Z,22.58
2023-02-22T13:40:30.698Z,24.90
2023-02-22T13:43:43.421Z,24.67
2023-02-22T13:46:25.854Z,23.88
2023-02-22T13:49:26.410Z,22.48
2023-02-22T13:52:09.503Z,22.35
2023-02-22T13:54:54.646Z,22.90
2023-02-22T13:57:28.377Z,24.40
2023-02-22T14:00:15.041Z,22.50
2023-02-22T14:03:13.429Z,22.08
2023-02-22T14:05:47.018Z,21.85
2023-02-22T14:08:17.120Z,25.15
2023-02-22T14:11:06.728Z,22.20
2023-02-22T14:14:17.177Z,23.00
2023-02-22T14:16:53.468Z,22.88
2023-02-22T14:19:25.211Z,22.83
2023-02-22T14:24:44.670Z,22.00
2023-02-22T14:27:17.600Z,20.73
2023-02-22T14:29:56.420Z,20.95
2023-02-22T14:32:33.509Z,23.23
2023-02-22T14:35:25.597Z,24.33
2023-02-22T14:37:59.631Z,22.95
2023-02-22T14:40:33.190Z,22.85
2023-02-22T14:43:14.925Z,22.50
2023-02-22T14:48:45.423Z,23.77
2023-02-22T14:51:26.833Z,24.70
2023-02-22T14:54:18.701Z,25.17
2023-02-22T14:57:00.569Z,23.08
2023-02-22T14:59:32.260Z,21.60
2023-02-22T15:02:15.024Z,23.75
2023-02-22T15:04:54.893Z,24.25
2023-02-22T15:07:27.441Z,24.52
2023-02-22T15:10:44.557Z,24.98
2023-02-22T15:13:31.465Z,25.60
2023-02-22T15:16:03.484Z,23.70
2023-02-22T15:18:43.184Z,23.85
2023-02-22T15:21:16.370Z,23.38
2023-02-22T15:23:53.574Z,22.13
2023-02-22T15:26:42.482Z,27.73
2023-02-22T15:29:38.232Z,27.08
2023-02-22T15:32:29.834Z,24.83
2023-02-22T15:35:27.814Z,26.02
2023-02-22T15:38:07.123Z,34.60
2023-02-22T15:40:36.242Z,61.50
2023-02-22T15:43:10.608Z,38.67
2023-02-22T15:45:43.062Z,28.33
2023-02-22T15:50:39.830Z,27.02
2023-02-22T15:53:28.755Z,25.80
2023-02-22T15:56:01.040Z,26.50
2023-02-22T15:58:30.100Z,24.05
2023-02-22T16:01:07.935Z,26.73
2023-02-22T16:03:44.925Z,26.40
2023-02-22T16:06:40.278Z,27.77
2023-02-22T16:09:15.702Z,25.95
2023-02-22T16:11:46.311Z,26.67
2023-02-22T16:14:43.138Z,25.45
2023-02-22T16:17:37.741Z,29.25
2023-02-22T16:20:11.436Z,28.85
2023-02-22T16:22:41.417Z,27.40
2023-02-22T16:25:18.223Z,28.48
2023-02-22T16:27:57.492Z,26.75
2023-02-22T16:30:34.506Z,29.67
2023-02-22T16:33:13.753Z,29.10
2023-02-22T16:35:51.720Z,28.77
2023-02-22T16:38:21.141Z,26.90
2023-02-22T16:40:55.473Z,26.63
2023-02-22T16:43:29.491Z,32.83
2023-02-22T16:45:57.690Z,27.30
2023-02-22T16:48:30.235Z,27.23
2023-02-22T16:51:06.879Z,26.88
2023-02-22T16:53:34.887Z,30.08
2023-02-22T16:56:08.376Z,27.92
2023-02-22T16:58:40.188Z,28.40
2023-02-22T17:01:08.578Z,26.95
2023-02-22T17:03:36.314Z,27.13
2023-02-22T17:06:04.093Z,28.98
2023-02-22T17:08:32.446Z,30.15
2023-02-22T17:11:00.754Z,28.42
2023-02-22T17:13:29.432Z,31.20
2023-02-22T17:15:58.301Z,32.70
2023-02-22T17:18:28.789Z,28.25
2023-02-22T17:20:56.684Z,28.90
2023-02-22T17:23:24.539Z,30.13
2023-02-22T17:25:56.596Z,31.30
2023-02-22T17:28:25.531Z,29.67
2023-02-22T17:31:00.645Z,28.10
2023-02-22T17:33:33.405Z,31.73
2023-02-22T17:36:03.996Z,28.00
2023-02-22T17:38:32.321Z,28.83
2023-02-22T17:41:01.433Z,30.35
2023-02-22T17:43:29.238Z,32.92
2023-02-22T17:45:57.572Z,32.97
2023-02-22T17:48:26.011Z,32.30
2023-02-22T17:50:53.985Z,31.98
2023-02-22T17:53:24.698Z,32.60
2023-02-22T17:55:53.078Z,32.27
2023-02-22T17:58:22.764Z,34.60
2023-02-22T18:00:51.196Z,34.42
2023-02-22T18:03:25.705Z,32.28
2023-02-22T18:05:57.855Z,30.70
2023-02-22T18:10:59.008Z,32.30
2023-02-22T18:13:27.758Z,32.35
2023-02-22T18:16:05.251Z,31.73
2023-02-22T18:18:32.967Z,34.60
2023-02-22T18:21:00.648Z,32.88
2023-02-22T18:23:31.257Z,33.28
2023-02-22T18:26:11.076Z,34.28
2023-02-22T18:28:39.612Z,32.40
2023-02-22T18:31:17.026Z,33.78
2023-02-22T18:33:48.500Z,33.58
2023-02-22T18:36:22.796Z,29.70
2023-02-22T18:38:53.655Z,31.83
2023-02-22T18:41:25.473Z,30.83
2023-02-22T18:43:55.554Z,32.63
2023-02-22T18:46:24.905Z,32.08
2023-02-22T18:48:55.658Z,32.47
2023-02-22T18:51:24.548Z,31.75
2023-02-22T18:53:59.983Z,34.75
2023-02-22T18:56:30.259Z,32.75
2023-02-22T18:59:01.250Z,39.78
2023-02-22T19:01:31.862Z,39.20
2023-02-22T19:04:00.453Z,40.50
2023-02-22T19:06:28.287Z,39.10
2023-02-22T19:08:56.001Z,47.30
2023-02-22T19:11:25.474Z,48.28
2023-02-22T19:13:57.596Z,49.05
2023-02-22T19:16:27.480Z,49.10
2023-02-22T19:18:57.622Z,53.63
2023-02-22T19:21:28.952Z,54.65
2023-02-22T19:24:01.785Z,56.85
2023-02-22T19:26:29.712Z,61.83
2023-02-22T19:29:01.114Z,59.33
2023-02-22T19:31:33.729Z,65.05
2023-02-22T19:34:05.946Z,68.30
2023-02-22T19:36:34.192Z,67.25
2023-02-22T19:39:02.078Z,67.88
2023-02-22T19:41:31.110Z,66.05
2023-02-22T19:43:59.640Z,64.25
2023-02-22T19:46:27.220Z,67.55
2023-02-22T19:48:59.563Z,67.43
2023-02-22T19:51:31.818Z,72.03
2023-02-22T19:54:03.779Z,77.60
2023-02-22T19:56:34.983Z,74.18
2023-02-22T19:59:13.452Z,77.03
2023-02-22T20:01:44.805Z,81.32
2023-02-22T20:04:21.473Z,79.00
2023-02-22T20:06:56.517Z,85.05
2023-02-22T20:09:36.370Z,89.60
2023-02-22T20:12:05.634Z,89.18
2023-02-22T20:14:34.233Z,98.88
2023-02-22T20:17:02.382Z,101.80
2023-02-22T20:19:29.965Z,99.50
2023-02-22T20:21:57.583Z,98.97
2023-02-22T20:24:25.388Z,102.45
2023-02-22T20:26:55.845Z,100.95
2023-02-22T20:29:29.650Z,102.15
2023-02-22T20:32:00.612Z,97.70
2023-02-22T20:34:33.363Z,99.37
2023-02-22T20:37:02.214Z,94.00
2023-02-22T20:39:29.721Z,91.00
2023-02-22T20:42:00.398Z,91.18
2023-02-22T20:44:28.012Z,88.43
2023-02-22T20:46:55.804Z,90.20
2023-02-22T20:49:23.326Z,86.90
2023-02-22T20:51:50.816Z,94.50
2023-02-22T20:54:18.710Z,89.38
2023-02-22T20:56:47.586Z,92.65
2023-02-22T20:59:18.719Z,88.40
2023-02-22T21:01:49.344Z,86.85
2023-02-22T21:04:17.704Z,88.72
2023-02-22T21:06:46.973Z,81.65
2023-02-22T21:09:19.308Z,85.50
2023-02-22T21:11:47.553Z,88.60
2023-02-22T21:14:20.417Z,88.63
2023-02-22T21:16:50.444Z,81.45
2023-02-22T21:19:26.034Z,83.95
2023-02-22T21:21:59.767Z,81.68
2023-02-22T21:24:29.086Z,86.55
2023-02-22T21:26:58.964Z,79.57
2023-02-22T21:29:29.074Z,82.95
2023-02-22T21:31:56.893Z,81.47
2023-02-22T21:34:25.794Z,85.43
2023-02-22T21:36:53.662Z,81.60
2023-02-22T21:39:22.548Z,81.32
2023-02-22T21:41:52.056Z,78.55
2023-02-22T21:44:20.499Z,78.18
2023-02-22T21:46:50.734Z,77.45
2023-02-22T21:49:23.121Z,76.07
2023-02-22T21:51:52.479Z,80.07
2023-02-22T21:54:23.608Z,83.18
2023-02-22T21:56:51.484Z,82.28
2023-02-22T21:59:23.397Z,83.80
2023-02-22T22:01:58.148Z,82.32
2023-02-22T22:04:29.311Z,77.05
2023-02-22T22:06:59.618Z,79.35
2023-02-22T22:09:32.591Z,83.88
2023-02-22T22:12:05.305Z,84.80
2023-02-22T22:14:35.504Z,76.28
2023-02-22T22:17:07.018Z,80.47
2023-02-22T22:22:07.903Z,76.70
2023-02-22T22:24:35.745Z,81.68
2023-02-22T22:27:07.602Z,74.78
2023-02-22T22:29:35.392Z,76.97
2023-02-22T22:32:03.457Z,80.30
2023-02-22T22:34:31.105Z,76.88
2023-02-22T22:36:58.783Z,80.97
2023-02-22T22:39:27.010Z,78.65
2023-02-22T22:41:55.304Z,73.38
2023-02-22T22:44:23.110Z,82.50
2023-02-22T22:46:53.575Z,84.70
2023-02-22T22:49:23.653Z,89.15
2023-02-22T22:51:51.310Z,82.75
2023-02-22T22:54:18.874Z,81.82
2023-02-22T22:56:46.483Z,76.93
2023-02-22T22:59:14.044Z,81.68
2023-02-22T23:01:44.733Z,76.70
2023-02-22T23:04:18.926Z,81.53
2023-02-22T23:06:52.349Z,76.95
2023-02-22T23:09:25.204Z,77.30
2023-02-22T23:12:08.417Z,81.28
2023-02-22T23:14:39.972Z,78.30
2023-02-22T23:17:14.226Z,76.32
2023-02-22T23:19:44.879Z,72.75
2023-02-22T23:22:14.148Z,76.90
2023-02-22T23:24:44.437Z,78.85
2023-02-22T23:27:12.323Z,75.63
2023-02-22T23:29:42.277Z,81.22
2023-02-22T23:32:10.210Z,84.60
2023-02-22T23:34:41.123Z,76.45
2023-02-22T23:37:10.730Z,80.75
2023-02-22T23:39:38.725Z,75.38
2023-02-22T23:42:08.909Z,78.00
2023-02-22T23:44:36.792Z,76.65
2023-02-22T23:47:04.650Z,82.90
2023-02-22T23:49:35.988Z,79.95
2023-02-22T23:52:09.418Z,76.55
2023-02-22T23:54:40.342Z,77.57
2023-02-22T23:57:08.830Z,77.22
2023-02-22T23:59:40.356Z,75.95
